createdAt,value
2022-11-06T00:01:26.956Z,79.83
2022-11-06T00:03:59.489Z,79.27
2022-11-06T00:06:49.489Z,79.65
2022-11-06T00:09:24.782Z,78.59
2022-11-06T00:11:58.582Z,79.88
2022-11-06T00:14:30.582Z,79.98
2022-11-06T00:17:03.262Z,79.49
2022-11-06T00:19:35.458Z,79.88
2022-11-06T00:22:11.102Z,80.43
2022-11-06T00:24:43.484Z,79.67
2022-11-06T00:27:16.082Z,79.05
2022-11-06T00:29:47.982Z,80.08
2022-11-06T00:32:23.028Z,80.64
2022-11-06T00:34:54.864Z,81.27
2022-11-06T00:37:29.731Z,80.76
2022-11-06T00:40:02.313Z,79.49
2022-11-06T00:42:34.762Z,81.13
2022-11-06T00:45:06.943Z,81.37
2022-11-06T00:47:39.386Z,81.80
2022-11-06T00:50:12.410Z,81.20
2022-11-06T00:52:47.712Z,81.97
2022-11-06T00:55:19.589Z,82.10
2022-11-06T00:57:51.682Z,81.47
2022-11-06T01:00:23.762Z,81.76
2022-11-06T01:02:56.304Z,82.22
2022-11-06T01:05:28.464Z,82.49
2022-11-06T01:08:03.663Z,82.21
2022-11-06T01:10:36.049Z,81.87
2022-11-06T01:13:08.507Z,81.96
2022-11-06T01:15:40.605Z,81.67
2022-11-06T01:18:13.013Z,81.80
2022-11-06T01:20:45.012Z,81.88
2022-11-06T01:23:20.681Z,81.24
2022-11-06T01:26:00.630Z,81.97
2022-11-06T01:28:33.444Z,81.29
2022-11-06T01:31:06.884Z,81.54
2022-11-06T01:33:42.255Z,82.53
2022-11-06T01:36:16.166Z,81.91
2022-11-06T01:38:54.249Z,81.43
2022-11-06T01:41:35.446Z,80.16
2022-11-06T01:44:10.763Z,80.84
2022-11-06T01:46:42.763Z,81.49
2022-11-06T01:49:20.162Z,81.30
2022-11-06T01:51:56.924Z,82.66
2022-11-06T01:54:33.281Z,81.71
2022-11-06T01:57:06.401Z,82.63
2022-11-06T01:59:43.247Z,81.66
2022-11-06T02:02:16.205Z,82.11
2022-11-06T02:04:51.460Z,81.15
2022-11-06T02:07:23.921Z,81.89
2022-11-06T02:09:59.322Z,81.38
2022-11-06T02:12:43.662Z,81.97
2022-11-06T02:15:24.504Z,82.39
2022-11-06T02:18:16.242Z,81.87
2022-11-06T02:21:03.083Z,81.57
2022-11-06T02:23:51.124Z,82.38
2022-11-06T02:26:41.015Z,81.92
2022-11-06T02:29:23.511Z,82.58
2022-11-06T02:31:59.224Z,81.68
2022-11-06T02:34:33.359Z,81.81
2022-11-06T02:37:10.703Z,81.00
2022-11-06T02:39:45.732Z,81.08
2022-11-06T02:42:21.499Z,80.73
2022-11-06T02:45:00.563Z,80.54
2022-11-06T02:47:36.121Z,81.33
2022-11-06T02:50:12.341Z,81.54
2022-11-06T02:52:51.166Z,81.42
2022-11-06T02:55:29.269Z,82.34
2022-11-06T02:58:06.762Z,82.27
2022-11-06T03:00:45.480Z,81.56
2022-11-06T03:03:24.560Z,81.70
2022-11-06T03:06:01.324Z,81.06
2022-11-06T03:08:40.144Z,81.17
2022-11-06T03:11:19.381Z,80.59
2022-11-06T03:13:57.661Z,80.78
2022-11-06T03:16:43.142Z,81.32
2022-11-06T03:19:54.061Z,81.46
2022-11-06T03:22:35.213Z,81.46
2022-11-06T03:25:17.740Z,81.89
2022-11-06T03:27:55.063Z,81.33
2022-11-06T03:30:27.339Z,80.53
2022-11-06T03:33:11.128Z,80.59
2022-11-06T03:35:47.647Z,80.80
2022-11-06T03:38:23.787Z,81.36
2022-11-06T03:41:02.069Z,82.23
2022-11-06T03:43:44.304Z,82.52
2022-11-06T03:46:25.529Z,83.48
2022-11-06T03:49:04.523Z,82.28
2022-11-06T03:51:41.344Z,83.17
2022-11-06T03:54:18.424Z,82.32
2022-11-06T03:56:55.381Z,82.54
2022-11-06T03:59:37.329Z,83.42
2022-11-06T04:02:10.761Z,84.08
2022-11-06T04:04:53.402Z,83.26
2022-11-06T04:07:30.365Z,83.25
2022-11-06T04:10:17.703Z,83.24
2022-11-06T04:13:05.221Z,83.35
2022-11-06T04:15:44.542Z,83.42
2022-11-06T04:18:17.320Z,83.99
2022-11-06T04:21:12.901Z,84.10
2022-11-06T04:24:16.142Z,82.83
2022-11-06T04:26:53.503Z,83.54
2022-11-06T04:29:39.189Z,83.34
2022-11-06T04:32:16.402Z,83.72
2022-11-06T04:34:53.244Z,84.17
2022-11-06T04:37:35.540Z,83.92
2022-11-06T04:40:14.041Z,84.79
2022-11-06T04:42:52.600Z,83.53
2022-11-06T04:45:28.849Z,84.50
2022-11-06T04:48:01.963Z,84.71
2022-11-06T04:50:38.883Z,84.39
2022-11-06T04:53:14.883Z,84.53
2022-11-06T04:55:52.040Z,84.84
2022-11-06T04:58:24.762Z,84.50
2022-11-06T05:00:56.988Z,84.21
2022-11-06T05:03:29.620Z,84.60
2022-11-06T05:06:01.904Z,84.58
2022-11-06T05:08:37.110Z,85.11
2022-11-06T05:11:09.602Z,84.22
2022-11-06T05:13:42.162Z,84.03
2022-11-06T05:16:14.544Z,84.36
2022-11-06T05:18:47.101Z,84.51
2022-11-06T05:21:31.322Z,85.07
2022-11-06T05:24:06.481Z,83.67
2022-11-06T05:26:38.861Z,83.71
2022-11-06T05:29:10.982Z,84.31
2022-11-06T05:31:42.822Z,84.68
2022-11-06T05:34:15.122Z,84.04
2022-11-06T05:36:47.464Z,84.34
2022-11-06T05:39:22.469Z,84.41
2022-11-06T05:41:54.299Z,84.15
2022-11-06T05:44:28.880Z,84.32
2022-11-06T05:47:00.891Z,83.22
2022-11-06T05:49:33.322Z,84.16
2022-11-06T05:52:05.103Z,84.10
2022-11-06T05:54:39.862Z,82.88
2022-11-06T05:57:11.622Z,83.63
2022-11-06T05:59:44.252Z,84.10
2022-11-06T06:02:16.179Z,84.01
2022-11-06T06:04:48.382Z,84.54
2022-11-06T06:07:20.241Z,84.46
2022-11-06T06:09:55.322Z,84.34
2022-11-06T06:12:27.103Z,84.61
2022-11-06T06:14:59.742Z,83.80
2022-11-06T06:17:31.386Z,84.04
2022-11-06T06:20:03.882Z,83.89
2022-11-06T06:22:36.245Z,83.91
2022-11-06T06:25:21.378Z,83.99
2022-11-06T06:27:55.421Z,83.62
2022-11-06T06:30:28.863Z,83.77
2022-11-06T10:07:34.136Z,63.00
2022-11-06T10:10:18.407Z,62.21
2022-11-06T10:13:23.517Z,62.67
2022-11-06T10:16:05.268Z,62.33
2022-11-06T10:18:55.899Z,62.55
2022-11-06T10:21:33.099Z,61.76
2022-11-06T10:24:23.973Z,62.87
2022-11-06T10:26:59.426Z,61.82
2022-11-06T10:29:43.665Z,62.01
2022-11-06T10:32:51.020Z,61.10
2022-11-06T10:35:26.867Z,62.04
2022-11-06T10:38:04.743Z,60.78
2022-11-06T10:40:39.986Z,61.42
2022-11-06T10:43:22.148Z,61.37
2022-11-06T10:45:59.824Z,61.94
2022-11-06T10:48:40.953Z,61.39
2022-11-06T10:51:34.644Z,61.25
2022-11-06T10:54:21.215Z,60.93
2022-11-06T10:57:23.531Z,61.48
2022-11-06T10:59:56.526Z,61.38
2022-11-06T11:02:34.246Z,60.70
2022-11-06T11:05:15.533Z,61.08
2022-11-06T11:07:49.553Z,62.86
2022-11-06T11:10:39.806Z,61.65
2022-11-06T11:13:23.987Z,61.23
2022-11-06T11:15:55.975Z,61.47
2022-11-06T11:18:31.661Z,61.62
2022-11-06T11:21:18.228Z,62.53
2022-11-06T11:24:07.326Z,62.76
2022-11-06T11:26:43.466Z,61.67
2022-11-06T11:29:26.548Z,62.10
2022-11-06T11:32:00.865Z,61.80
2022-11-06T11:34:35.765Z,61.30
2022-11-06T11:37:09.189Z,62.04
2022-11-06T11:39:45.704Z,61.21
2022-11-06T11:42:27.157Z,61.36
2022-11-06T11:45:20.885Z,61.94
2022-11-06T11:47:54.829Z,60.34
2022-11-06T11:50:33.672Z,61.03
2022-11-06T11:53:14.548Z,62.06
2022-11-06T11:55:48.987Z,61.84
2022-11-06T11:58:24.786Z,62.23
2022-11-06T12:01:03.425Z,61.48
2022-11-06T12:03:41.899Z,61.02
2022-11-06T12:06:16.345Z,61.93
2022-11-06T12:08:52.254Z,61.86
2022-11-06T12:11:26.925Z,62.62
2022-11-06T12:14:20.366Z,61.33
2022-11-06T12:16:58.425Z,61.17
2022-11-06T12:19:34.105Z,60.99
2022-11-06T12:22:14.087Z,61.73
2022-11-06T12:24:54.564Z,61.35
2022-11-06T12:27:31.764Z,61.34
2022-11-06T12:30:08.545Z,60.13
2022-11-06T12:33:03.049Z,59.68
2022-11-06T12:35:39.785Z,60.22
2022-11-06T12:38:21.906Z,60.26
2022-11-06T12:41:01.224Z,61.08
2022-11-06T12:43:40.667Z,60.75
2022-11-06T12:46:34.964Z,60.52
2022-11-06T12:49:25.850Z,60.33
2022-11-06T12:52:16.214Z,61.15
2022-11-06T12:55:07.799Z,60.06
2022-11-06T12:57:53.450Z,59.44
2022-11-06T13:00:31.410Z,59.66
2022-11-06T13:03:25.338Z,60.31
2022-11-06T13:06:12.808Z,59.55
2022-11-06T13:08:55.272Z,59.53
2022-11-06T13:11:36.939Z,59.38
2022-11-06T13:14:20.489Z,59.03
2022-11-06T13:17:02.774Z,58.91
2022-11-06T13:19:46.692Z,58.73
2022-11-06T13:22:31.413Z,59.31
2022-11-06T13:25:14.071Z,58.24
2022-11-06T13:27:51.891Z,59.59
2022-11-06T13:30:26.032Z,59.15
2022-11-06T13:33:08.551Z,59.56
2022-11-06T13:35:44.770Z,59.92
2022-11-06T13:38:25.330Z,59.61
2022-11-06T13:41:03.791Z,59.24
2022-11-06T13:43:39.914Z,59.39
2022-11-06T13:46:24.596Z,59.43
2022-11-06T13:49:07.599Z,59.07
2022-11-06T13:51:49.731Z,59.03
2022-11-06T13:54:43.151Z,58.33
2022-11-06T13:57:45.572Z,60.29
2022-11-06T14:00:25.001Z,60.18
2022-11-06T14:03:31.254Z,59.75
2022-11-06T14:06:07.993Z,59.91
2022-11-06T14:08:46.736Z,60.40
2022-11-06T14:11:24.287Z,60.13
2022-11-06T14:14:03.225Z,60.83
2022-11-06T14:16:37.692Z,60.75
2022-11-06T14:19:15.124Z,60.43
2022-11-06T14:21:52.606Z,61.63
2022-11-06T14:24:42.696Z,62.23
2022-11-06T14:27:52.691Z,61.54
2022-11-06T14:31:11.581Z,60.83
2022-11-06T14:34:07.847Z,60.38
2022-11-06T14:36:40.886Z,61.02
2022-11-06T14:39:16.554Z,61.69
2022-11-06T14:42:00.276Z,60.69
2022-11-06T14:44:54.808Z,60.51
2022-11-06T14:47:38.208Z,61.14
2022-11-06T14:50:26.744Z,61.38
2022-11-06T14:53:03.654Z,60.46
2022-11-06T14:55:42.949Z,60.99
2022-11-06T14:58:22.686Z,61.52
2022-11-06T15:00:59.792Z,62.10
2022-11-06T15:03:37.404Z,61.22
2022-11-06T15:06:24.943Z,61.39
2022-11-06T15:09:08.045Z,61.85
2022-11-06T15:11:56.162Z,61.87
2022-11-06T15:14:57.307Z,62.04
2022-11-06T15:17:38.352Z,62.59
2022-11-06T15:20:26.383Z,62.25
2022-11-06T15:23:16.746Z,62.19
2022-11-06T15:26:04.222Z,62.56
2022-11-06T15:28:44.747Z,62.49
2022-11-06T15:31:20.182Z,62.75
2022-11-06T15:34:01.789Z,62.97
2022-11-06T15:36:41.732Z,63.58
2022-11-06T15:39:36.883Z,63.02
2022-11-06T15:42:12.286Z,63.22
2022-11-06T15:44:46.123Z,63.66
2022-11-06T15:47:25.685Z,63.51
2022-11-06T15:50:17.902Z,63.57
2022-11-06T15:52:52.212Z,63.75
2022-11-06T15:55:34.989Z,64.45
2022-11-06T15:58:12.002Z,64.58
2022-11-06T16:00:44.767Z,64.42
2022-11-06T16:03:20.643Z,63.70
2022-11-06T16:05:57.448Z,64.34
2022-11-06T16:08:32.190Z,64.35
2022-11-06T16:11:10.720Z,64.33
2022-11-06T16:13:48.212Z,64.51
2022-11-06T16:16:39.164Z,64.23
2022-11-06T16:19:24.628Z,64.46
2022-11-06T16:22:03.552Z,64.65
2022-11-06T16:24:43.158Z,65.04
2022-11-06T16:27:16.486Z,65.51
2022-11-06T16:29:51.766Z,65.63
2022-11-06T16:32:26.666Z,65.81
2022-11-06T16:35:00.372Z,65.83
2022-11-06T16:37:41.743Z,66.21
2022-11-06T16:40:52.822Z,66.49
2022-11-06T16:43:25.511Z,66.48
2022-11-06T16:46:01.103Z,66.70
2022-11-06T16:48:37.564Z,66.29
2022-11-06T16:51:17.442Z,66.80
2022-11-06T16:54:03.895Z,67.15
2022-11-06T16:56:37.887Z,66.44
2022-11-06T16:59:26.890Z,66.31
2022-11-06T17:01:59.040Z,67.08
2022-11-06T17:04:49.144Z,66.93
2022-11-06T17:07:37.753Z,67.72
2022-11-06T17:10:48.364Z,67.52
2022-11-06T17:13:22.203Z,67.16
2022-11-06T17:15:57.345Z,68.12
2022-11-06T17:18:30.925Z,68.07
2022-11-06T17:21:03.825Z,68.25
2022-11-06T17:23:36.944Z,68.44
2022-11-06T17:26:16.746Z,68.24
2022-11-06T17:28:48.728Z,68.85
2022-11-06T17:31:24.185Z,67.94
2022-11-06T17:33:56.965Z,68.73
2022-11-06T17:36:30.785Z,68.48
2022-11-06T17:39:03.267Z,68.39
2022-11-06T17:41:37.454Z,67.77
2022-11-06T17:44:12.314Z,67.83
2022-11-06T17:46:58.150Z,68.11
2022-11-06T17:49:30.242Z,67.76
2022-11-06T17:52:01.868Z,68.34
2022-11-06T17:54:37.350Z,67.60
2022-11-06T17:57:12.065Z,68.56
2022-11-06T17:59:44.264Z,68.67
2022-11-06T18:02:34.931Z,68.14
2022-11-06T18:05:11.212Z,68.51
2022-11-06T18:07:43.107Z,68.45
2022-11-06T18:10:15.404Z,68.05
2022-11-06T18:12:51.726Z,69.38
2022-11-06T18:15:24.050Z,69.47
2022-11-06T18:17:56.108Z,70.26
2022-11-06T18:20:28.465Z,69.78
2022-11-06T18:23:00.465Z,70.41
2022-11-06T18:25:32.785Z,70.44
2022-11-06T18:28:08.148Z,70.20
2022-11-06T18:30:41.509Z,70.36
2022-11-06T18:33:13.530Z,70.87
2022-11-06T18:35:45.944Z,70.89
2022-11-06T18:38:18.087Z,71.31
2022-11-06T18:40:51.740Z,71.13
2022-11-06T18:43:26.764Z,71.77
2022-11-06T18:45:59.166Z,72.17
2022-11-06T18:48:31.193Z,71.16
2022-11-06T18:51:09.439Z,70.80
2022-11-06T18:53:42.785Z,70.95
2022-11-06T18:56:17.125Z,71.01
2022-11-06T18:59:22.726Z,71.72
2022-11-06T19:01:59.096Z,72.11
2022-11-06T19:04:32.781Z,72.60
2022-11-06T19:07:05.427Z,73.61
2022-11-06T19:09:37.419Z,73.45
2022-11-06T19:12:10.518Z,74.26
2022-11-06T19:14:45.057Z,73.68
2022-11-06T19:17:17.599Z,73.42
2022-11-06T19:19:50.688Z,73.12
2022-11-06T19:22:22.666Z,74.26
2022-11-06T19:24:54.225Z,74.29
2022-11-06T19:27:26.348Z,74.00
2022-11-06T19:30:00.586Z,75.24
2022-11-06T19:32:32.525Z,75.05
2022-11-06T19:35:04.166Z,75.54
2022-11-06T19:37:37.547Z,76.02
2022-11-06T19:40:11.649Z,76.06
2022-11-06T19:42:44.128Z,75.91
2022-11-06T19:45:18.703Z,76.80
2022-11-06T19:47:50.772Z,76.50
2022-11-06T19:50:45.881Z,76.36
2022-11-06T19:53:15.202Z,76.28
2022-11-06T19:55:47.225Z,77.21
2022-11-06T19:58:20.267Z,77.03
2022-11-06T20:00:54.566Z,76.79
2022-11-06T20:03:26.604Z,76.35
2022-11-06T20:05:59.591Z,76.32
2022-11-06T20:08:34.585Z,76.78
2022-11-06T20:11:07.162Z,76.67
2022-11-06T20:13:39.335Z,75.87
2022-11-06T20:16:15.533Z,76.16
2022-11-06T20:18:47.745Z,76.86
2022-11-06T20:21:19.666Z,77.46
2022-11-06T20:23:51.764Z,76.32
2022-11-06T20:26:23.965Z,77.25
2022-11-06T20:28:56.068Z,78.00
2022-11-06T20:31:30.729Z,77.78
2022-11-06T20:34:02.877Z,78.28
2022-11-06T20:36:35.977Z,78.27
2022-11-06T20:39:09.901Z,78.48
2022-11-06T20:41:41.642Z,78.11
2022-11-06T20:44:13.674Z,77.93
2022-11-06T20:46:48.222Z,78.25
2022-11-06T20:49:20.383Z,78.35
2022-11-06T20:52:12.831Z,77.64
2022-11-06T20:54:47.726Z,78.18
2022-11-06T20:57:19.624Z,77.11
2022-11-06T20:59:51.642Z,76.95
2022-11-06T21:02:26.183Z,76.92
2022-11-06T21:04:58.205Z,76.36
2022-11-06T21:07:29.896Z,77.35
2022-11-06T21:10:02.810Z,78.39
2022-11-06T21:12:36.884Z,78.24
2022-11-06T21:15:10.463Z,78.29
2022-11-06T21:17:47.082Z,79.16
2022-11-06T21:20:23.031Z,78.96
2022-11-06T21:22:55.481Z,79.19
2022-11-06T21:25:27.743Z,79.60
2022-11-06T21:27:59.764Z,79.11
2022-11-06T21:30:32.130Z,79.98
2022-11-06T21:33:06.545Z,80.22
2022-11-06T21:35:38.646Z,80.83
2022-11-06T21:38:10.621Z,79.80
2022-11-06T21:40:43.170Z,79.33
2022-11-06T21:43:15.000Z,80.03
2022-11-06T21:45:47.746Z,79.84
2022-11-06T21:48:40.560Z,78.51
2022-11-06T21:51:21.931Z,79.37
2022-11-06T21:54:06.471Z,79.32
2022-11-06T21:56:39.854Z,79.09
2022-11-06T21:59:13.294Z,78.92
2022-11-06T22:01:46.156Z,79.86
2022-11-06T22:04:20.830Z,79.84
2022-11-06T22:06:52.990Z,81.04
2022-11-06T22:09:25.934Z,79.73
2022-11-06T22:11:58.072Z,79.77
2022-11-06T22:14:30.557Z,80.18
2022-11-06T22:17:02.557Z,79.21
2022-11-06T22:19:36.917Z,79.33
2022-11-06T22:22:08.872Z,79.92
2022-11-06T22:28:25.309Z,79.19
2022-11-06T22:31:09.931Z,78.00
2022-11-06T22:33:41.857Z,77.55
2022-11-06T22:36:18.510Z,78.22
2022-11-06T22:38:50.631Z,78.05
2022-11-06T22:41:24.721Z,78.33
2022-11-06T22:44:00.678Z,78.40
2022-11-06T22:46:33.130Z,79.04
2022-11-06T22:49:05.152Z,78.71
2022-11-06T22:51:39.893Z,78.39
2022-11-06T22:54:11.531Z,78.18
2022-11-06T22:56:43.452Z,78.21
2022-11-06T22:59:15.849Z,78.32
2022-11-06T23:01:47.841Z,79.14
2022-11-06T23:04:19.631Z,80.01
2022-11-06T23:06:54.191Z,79.38
2022-11-06T23:09:25.831Z,79.31
2022-11-06T23:11:57.711Z,79.63
2022-11-06T23:14:29.470Z,79.12
2022-11-06T23:17:01.324Z,78.53
2022-11-06T23:19:35.297Z,77.28
2022-11-06T23:22:22.153Z,77.54
2022-11-06T23:24:56.333Z,76.44
2022-11-06T23:27:28.820Z,76.62
2022-11-06T23:30:00.921Z,76.38
2022-11-06T23:32:34.519Z,75.73
2022-11-06T23:35:10.350Z,75.71
2022-11-06T23:37:48.352Z,75.40
2022-11-06T23:40:20.831Z,74.60
2022-11-06T23:42:54.931Z,74.19
2022-11-06T23:45:39.110Z,74.79
2022-11-06T23:48:15.213Z,75.36
2022-11-06T23:50:48.571Z,75.87
2022-11-06T23:53:23.391Z,76.45
2022-11-06T23:55:55.312Z,76.29
2022-11-06T23:58:27.510Z,76.02
